createdAt,value
2023-05-12T00:00:59.516Z,3.45
2023-05-12T00:03:26.656Z,3.85
2023-05-12T00:05:54.074Z,3.25
2023-05-12T00:08:21.011Z,3.40
2023-05-12T00:10:47.866Z,3.35
2023-05-12T00:13:14.949Z,3.25
2023-05-12T00:15:41.861Z,3.40
2023-05-12T00:18:08.747Z,3.30
2023-05-12T00:20:35.728Z,3.25
2023-05-12T00:23:02.845Z,3.30
2023-05-12T00:25:29.885Z,3.22
2023-05-12T00:27:57.068Z,3.30
2023-05-12T00:30:23.863Z,3.10
2023-05-12T00:32:51.111Z,3.03
2023-05-12T00:35:18.136Z,3.53
2023-05-12T00:37:45.138Z,3.15
2023-05-12T00:40:12.485Z,3.35
2023-05-12T00:42:39.363Z,3.20
2023-05-12T00:45:07.608Z,3.00
2023-05-12T00:47:36.031Z,3.10
2023-05-12T00:50:04.048Z,3.10
2023-05-12T00:52:31.506Z,3.10
2023-05-12T00:55:00.463Z,2.80
2023-05-12T00:57:30.067Z,2.88
2023-05-12T00:59:57.128Z,2.80
2023-05-12T01:02:24.100Z,2.90
2023-05-12T01:04:51.630Z,2.90
2023-05-12T01:07:22.358Z,2.85
2023-05-12T01:09:53.793Z,2.90
2023-05-12T01:12:21.566Z,2.80
2023-05-12T01:14:49.477Z,2.90
2023-05-12T01:17:21.218Z,2.92
2023-05-12T01:19:51.990Z,3.10
2023-05-12T01:22:19.219Z,2.80
2023-05-12T01:24:59.125Z,2.70
2023-05-12T01:27:27.507Z,2.83
2023-05-12T01:29:57.932Z,2.60
2023-05-12T01:32:25.210Z,2.75
2023-05-12T01:34:52.328Z,2.90
2023-05-12T01:37:19.432Z,2.70
2023-05-12T01:39:46.269Z,2.85
2023-05-12T01:42:13.278Z,2.63
2023-05-12T01:44:40.500Z,2.70
2023-05-12T01:47:10.028Z,2.58
2023-05-12T01:49:37.479Z,2.80
2023-05-12T01:52:04.738Z,2.80
2023-05-12T01:54:31.570Z,2.70
2023-05-12T01:56:58.424Z,2.67
2023-05-12T01:59:25.359Z,2.53
2023-05-12T02:01:52.513Z,2.70
2023-05-12T02:04:19.406Z,2.53
2023-05-12T02:06:46.364Z,2.33
2023-05-12T02:09:13.603Z,2.17
2023-05-12T02:11:40.445Z,2.50
2023-05-12T02:14:07.555Z,2.40
2023-05-12T02:16:34.419Z,2.42
2023-05-12T02:19:01.517Z,2.40
2023-05-12T02:21:28.379Z,2.25
2023-05-12T02:23:56.441Z,2.30
2023-05-12T02:26:23.356Z,2.20
2023-05-12T02:28:50.302Z,2.08
2023-05-12T02:31:17.528Z,2.22
2023-05-12T02:33:44.417Z,2.20
2023-05-12T02:36:11.281Z,2.30
2023-05-12T02:38:39.992Z,2.40
2023-05-12T02:41:08.037Z,2.30
2023-05-12T02:43:34.846Z,2.30
2023-05-12T02:46:04.193Z,2.45
2023-05-12T02:48:32.057Z,2.38
2023-05-12T02:50:59.376Z,2.30
2023-05-12T02:53:27.890Z,2.45
2023-05-12T02:55:54.736Z,2.60
2023-05-12T02:58:23.019Z,2.50
2023-05-12T03:00:59.847Z,2.60
2023-05-12T03:03:33.976Z,2.78
2023-05-12T03:06:00.904Z,2.88
2023-05-12T03:08:27.997Z,3.25
2023-05-12T03:10:55.044Z,2.67
2023-05-12T03:13:22.359Z,3.20
2023-05-12T03:15:49.237Z,3.42
2023-05-12T03:18:16.027Z,3.65
2023-05-12T03:20:42.922Z,3.40
2023-05-12T03:23:09.715Z,3.35
2023-05-12T03:25:36.890Z,3.33
2023-05-12T03:28:05.506Z,3.67
2023-05-12T03:30:33.304Z,4.40
2023-05-12T03:33:00.230Z,3.88
2023-05-12T03:35:27.148Z,4.03
2023-05-12T03:37:54.328Z,4.75
2023-05-12T03:40:21.703Z,4.53
2023-05-12T03:42:48.812Z,4.57
2023-05-12T03:45:15.812Z,5.20
2023-05-12T03:47:43.173Z,4.88
2023-05-12T03:50:10.329Z,5.47
2023-05-12T03:52:38.602Z,5.57
2023-05-12T03:55:07.096Z,5.70
2023-05-12T03:57:36.481Z,5.88
2023-05-12T04:00:07.341Z,5.90
2023-05-12T04:02:34.226Z,5.78
2023-05-12T04:05:01.218Z,6.35
2023-05-12T04:07:28.530Z,6.40
2023-05-12T04:09:55.853Z,6.22
2023-05-12T04:12:23.876Z,6.45
2023-05-12T04:14:51.141Z,6.35
2023-05-12T04:17:19.366Z,6.70
2023-05-12T04:19:46.790Z,6.32
2023-05-12T04:22:13.563Z,6.47
2023-05-12T04:24:40.472Z,6.28
2023-05-12T04:27:07.495Z,6.80
2023-05-12T04:29:34.247Z,6.53
2023-05-12T04:32:01.147Z,6.70
2023-05-12T04:34:28.078Z,7.50
2023-05-12T04:36:54.891Z,7.22
2023-05-12T04:39:21.687Z,7.50
2023-05-12T04:41:48.522Z,7.40
2023-05-12T04:44:15.663Z,7.20
2023-05-12T04:46:43.431Z,7.25
2023-05-12T04:49:10.993Z,7.35
2023-05-12T04:51:42.312Z,7.80
2023-05-12T04:54:12.339Z,8.50
2023-05-12T04:56:39.221Z,8.25
2023-05-12T04:59:06.652Z,7.95
2023-05-12T05:01:33.552Z,8.35
2023-05-12T05:04:00.605Z,8.57
2023-05-12T05:06:28.140Z,8.80
2023-05-12T05:08:55.982Z,8.75
2023-05-12T05:11:23.800Z,9.30
2023-05-12T05:13:51.081Z,8.55
2023-05-12T05:16:18.036Z,9.18
2023-05-12T05:18:47.915Z,9.45
2023-05-12T05:21:15.162Z,9.70
2023-05-12T05:23:42.796Z,9.60
2023-05-12T05:26:09.713Z,9.65
2023-05-12T05:28:37.350Z,9.93
2023-05-12T05:31:04.455Z,10.27
2023-05-12T05:33:32.017Z,9.40
2023-05-12T05:35:59.526Z,10.13
2023-05-12T05:38:26.366Z,10.73
2023-05-12T05:40:54.475Z,10.38
2023-05-12T05:43:21.553Z,9.60
2023-05-12T05:45:50.006Z,10.32
2023-05-12T05:48:17.780Z,10.52
2023-05-12T05:50:45.013Z,10.32
2023-05-12T05:53:11.787Z,10.00
2023-05-12T05:55:38.619Z,10.38
2023-05-12T05:58:05.687Z,10.90
2023-05-12T06:00:32.534Z,9.82
2023-05-12T06:02:59.409Z,10.73
2023-05-12T06:05:26.415Z,10.52
2023-05-12T06:07:53.257Z,11.35
2023-05-12T06:10:20.052Z,10.65
2023-05-12T06:12:47.397Z,10.77
2023-05-12T06:15:14.275Z,10.50
2023-05-12T06:17:42.152Z,10.77
2023-05-12T06:20:09.950Z,10.20
2023-05-12T06:22:36.754Z,10.48
2023-05-12T06:25:03.930Z,10.43
2023-05-12T06:27:30.943Z,10.70
2023-05-12T06:29:57.842Z,10.73
2023-05-12T06:32:24.895Z,10.20
2023-05-12T06:34:51.856Z,10.18
2023-05-12T06:37:18.720Z,10.70
2023-05-12T06:39:45.491Z,10.50
2023-05-12T06:42:12.845Z,10.85
2023-05-12T06:44:41.864Z,11.38
2023-05-12T06:47:09.480Z,10.05
2023-05-12T06:49:37.368Z,10.25
2023-05-12T06:52:05.884Z,10.68
2023-05-12T06:54:33.108Z,11.10
2023-05-12T06:57:00.050Z,9.63
2023-05-12T06:59:27.020Z,9.82
2023-05-12T07:01:54.043Z,10.45
2023-05-12T07:04:21.660Z,10.43
2023-05-12T07:06:48.633Z,10.43
2023-05-12T07:09:15.503Z,10.30
2023-05-12T07:11:42.312Z,10.75
2023-05-12T07:14:09.164Z,11.00
2023-05-12T07:16:36.406Z,10.82
2023-05-12T07:19:03.356Z,10.60
2023-05-12T07:21:30.671Z,11.15
2023-05-12T07:23:57.452Z,11.00
